Terminal Aerodrome Forecast
Issued by NWS

Home | Current Version | Previous Version | Text Only | Print | Product List | Glossary On
Versions: 1 2 3 4 5 6 7 8 9 10 11 12 13 14 15 16 17 18 19 20 21 22 23 24
000
FTUS46 KMFR 041138
TAFOTH
TAF
KOTH 041138Z 0412/0512 15006KT P6SM SCT030 BKN150
     FM041800 34009KT P6SM BKN030
     FM042100 34012G20KT P6SM BKN035
     FM050300 35008KT P6SM BKN030=

USA.gov is the U.S. government's official web portal to all federal, state and local government web resources and services.